Mammoth Cave National Park, Kentucky
Current Conditions -  °F | °C
As of 10:35 AM on Saturday 25 Oct 2014 (Local Time) from KGLW Reporting Station
Overcast Overcast  
Wind Chill: 58°   Ceiling: 4300
Heat Index: 58°   Visibility: 10mi
Dew Point: 52°   Wind: 6mph
Humidity: 80%   Direction: 240°WSW
Pressure: 30.06"   Gusts: NA
Location:  37.2519°N, 86.1739°W
Report Text: KGLW 251535Z AUTO 24005KT 10SM SCT038 OVC043 15/11 A3006 RMK AO2 T01450111
Loading
Personal Weather Stations






























Interactive Weather Map
Tropical Storm Tracking
New forecast layout! Learn more

10-Day Weather Forecast

Advertisements
Track Severe Weather on mobile